Strona główna
METAR-TAF:

METAR-TAF

Lotnisko :

Port lotniczy Evansville

Evansville, Indiana, Stany Zjednoczone

Szerokość geograficzna: 38-02-35N, Długość geograficzna: 087-31-13W, wysokość: 127 m

Aktualna obserwacja pogody

Raport powstał 27 minut temu, godzina 05:54 UTC
Cisza
Temperatura 23°C
Wilgotność 83%
Ciśnienie 1015 hPa
Widzialność: 16.1 km
bezchmurnie

METAR: KEVV 040554Z AUTO 00000KT 10SM CLR 23/20 A2998 RMK AO2 SLP146 T02330200 10311 20233 403280217 56003

czas: 01:21 (06:21 UTC)

Prognoza

Raport powstał 1 godzina i 1 minut temu, godzina 05:20 UTC
Prognoza ważna od 04 godzina 06 UTC do 05 godzina 06 UTC
Wiatr kt od północ
Widzialność: 10 km
Mało chmury na wysokości 5000 ft
Od 04 godzina 1900 UTC
Wiatr 4 kt z kierunków zmiennych
Widzialność: 10 km
Rozproszone chmury na wysokości 4500 ft

TAF: KEVV 040520Z 0406/0506 00000KT P6SM FEW050 FM041900 VRB04KT P6SM SCT045

Obserwacja i prognoza pogody dla ponad 4000 lotnisk (raport METAR i TAF).

Dostępne stacje oznaczono żółtymi i czerwonymi punktami na mapie.

Najedź kursorem aby zobaczyć nazwę stacji.

Kliknij aby zobaczyć obserwacje i prognozy pogody.

Aby zmienić mapę: kliknij na zielony przycisk z czarnym krzyżykiem, aby powiększyć; na zielony przycisk z myślnikiem, aby pomniejszyć; na zielone strzałki, aby przejść do map sąsiednich.


METAR-TAF: